Time;durP1;ratioP1;P1;durP2;ratioP2;P2;SDS_P1;SDS_P2;PMS_P1;PMS_P2;Temp;Humidity;BMP_temperature;BMP_pressure;BME280_temperature;BME280_humidity;BME280_pressure;Samples;Min_cycle;Max_cycle;Signal;HPM_P1;HPM_P2
2021/05/14 16:51:38;;;;;;;2.55;0.90;;;;;;;16.73;50.56;95107.84;1277461;23;20045;-74
2021/05/14 16:52:08;;;;;;;3.03;0.70;;;;;;;16.78;50.14;95098.78;1278593;23;20005;-68
2021/05/14 16:52:39;;;;;;;3.10;1.23;;;;;;;16.85;50.12;95099.84;1278232;23;20008;-68
2021/05/14 16:53:10;;;;;;;1.87;0.80;;;;;;;16.83;49.82;95103.97;1278312;23;20005;-68
2021/05/14 16:53:40;;;;;;;3.13;0.83;;;;;;;16.72;49.57;95100.88;1277278;23;20426;-69
2021/05/14 16:54:11;;;;;;;4.10;0.80;;;;;;;16.72;49.85;95103.59;1276696;23;20752;-69
2021/05/14 16:54:42;;;;;;;4.20;0.80;;;;;;;16.68;50.34;95104.53;1277738;23;20601;-69
2021/05/14 16:55:14;;;;;;;4.55;0.93;;;;;;;16.63;50.53;95103.66;1278106;23;20005;-76
2021/05/14 16:55:45;;;;;;;2.95;0.85;;;;;;;16.57;50.55;95104.16;1272428;23;20009;-72
2021/05/14 16:56:15;;;;;;;3.30;0.80;;;;;;;16.50;50.73;95102.00;1266135;23;20422;-80
2021/05/14 16:56:46;;;;;;;2.23;0.87;;;;;;;16.48;50.23;95098.84;1265958;23;20001;-67
2021/05/14 16:57:16;;;;;;;1.40;0.70;;;;;;;16.53;50.56;95101.34;1259803;23;20002;-70
2021/05/14 16:57:47;;;;;;;3.60;1.03;;;;;;;16.57;51.29;95096.84;1265280;23;20002;-75
2021/05/14 16:58:18;;;;;;;1.60;0.70;;;;;;;16.58;51.18;95098.44;1271446;23;19997;-73
2021/05/14 16:58:48;;;;;;;2.17;0.75;;;;;;;16.54;50.83;95100.22;1271656;23;20007;-72
2021/05/14 16:59:19;;;;;;;3.77;0.80;;;;;;;16.52;51.12;95099.75;1277844;23;20008;-71
2021/05/14 16:59:49;;;;;;;2.43;0.70;;;;;;;16.45;51.18;95102.19;1278072;23;20004;-71
2021/05/14 17:00:20;;;;;;;2.77;0.90;;;;;;;16.46;51.32;95102.97;1278477;23;20047;-72
2021/05/14 17:00:50;;;;;;;2.70;0.90;;;;;;;16.39;51.57;95103.50;1278586;23;20076;-70
2021/05/14 17:01:21;;;;;;;4.17;0.80;;;;;;;16.35;50.62;95100.66;1278673;23;20039;-72
2021/05/14 17:01:51;;;;;;;3.77;1.10;;;;;;;16.38;50.80;95102.72;1278598;23;20001;-71
2021/05/14 17:02:22;;;;;;;1.83;0.80;;;;;;;16.45;51.51;95112.19;1278711;23;20001;-72
2021/05/14 17:02:53;;;;;;;3.10;0.80;;;;;;;16.42;51.89;95107.44;1278666;23;20033;-73
2021/05/14 17:03:23;;;;;;;3.57;1.10;;;;;;;16.44;53.00;95105.22;1278655;23;20005;-73
2021/05/14 17:03:53;;;;;;;2.23;0.93;;;;;;;16.45;52.40;95104.09;1278530;23;20008;-70
2021/05/14 17:04:24;;;;;;;4.60;1.00;;;;;;;16.37;52.38;95106.50;1277782;23;20044;-70
2021/05/14 17:04:54;;;;;;;3.57;0.90;;;;;;;16.33;53.41;95102.91;1278451;23;20510;-72
2021/05/14 17:05:25;;;;;;;1.77;0.70;;;;;;;16.29;52.06;95109.28;1278571;23;20334;-72
2021/05/14 17:06:02;;;;;;;2.03;0.73;;;;;;;16.25;52.24;95103.75;1278513;23;20047;-73
2021/05/14 17:06:39;;;;;;;2.83;0.98;;;;;;;16.19;52.21;95109.66;1278543;23;20079;-72
2021/05/14 17:07:10;;;;;;;2.83;0.90;;;;;;;16.16;52.23;95103.00;1278689;23;20028;-73
2021/05/14 17:07:40;;;;;;;2.80;0.90;;;;;;;16.14;53.37;95101.78;1278096;23;20024;-72
2021/05/14 17:08:11;;;;;;;5.37;0.93;;;;;;;16.10;54.34;95107.81;1278233;23;20057;-72
2021/05/14 17:08:41;;;;;;;7.03;1.30;;;;;;;16.09;54.49;95105.44;1278041;23;20008;-72
2021/05/14 17:09:13;;;;;;;2.97;1.17;;;;;;;16.10;53.54;95105.09;1278212;23;20008;-71
2021/05/14 17:09:44;;;;;;;2.10;0.88;;;;;;;16.10;54.17;95102.41;1278167;23;20004;-70
2021/05/14 17:10:16;;;;;;;2.30;0.80;;;;;;;16.12;54.35;95096.69;1278511;23;20429;-71
2021/05/14 17:10:47;;;;;;;2.58;0.70;;;;;;;16.10;54.39;95104.31;1277813;23;20005;-71
2021/05/14 17:11:17;;;;;;;3.00;0.87;;;;;;;16.07;54.07;95105.78;1278442;23;20017;-70
2021/05/14 17:11:49;;;;;;;2.03;0.93;;;;;;;16.07;54.28;95102.25;1277658;23;20333;-70
2021/05/14 17:12:20;;;;;;;3.17;0.90;;;;;;;16.05;53.42;95105.28;1278161;23;20001;-70
2021/05/14 17:12:51;;;;;;;2.58;1.10;;;;;;;15.99;53.05;95109.28;1278246;23;20001;-70
2021/05/14 17:13:22;;;;;;;3.78;1.10;;;;;;;15.98;52.73;95106.94;1277099;23;20025;-71
2021/05/14 17:13:52;;;;;;;4.10;0.90;;;;;;;16.01;52.18;95104.34;1277812;23;20001;-73
2021/05/14 17:14:27;;;;;;;3.03;0.90;;;;;;;16.01;52.73;95107.06;1271838;23;20001;-69
2021/05/14 17:14:58;;;;;;;2.90;1.20;;;;;;;16.02;53.43;95111.34;1271818;23;20020;-68
2021/05/14 17:15:28;;;;;;;2.27;1.00;;;;;;;15.97;53.47;95114.22;1271665;23;20001;-68
2021/05/14 17:15:58;;;;;;;3.00;1.17;;;;;;;16.02;53.57;95110.53;1270932;23;20065;-70
2021/05/14 17:16:29;;;;;;;2.97;1.10;;;;;;;16.02;53.79;95108.66;1276321;23;20004;-65
2021/05/14 17:17:00;;;;;;;3.30;1.10;;;;;;;16.04;53.99;95109.09;1277176;23;20032;-66
2021/05/14 17:17:31;;;;;;;3.60;1.23;;;;;;;16.00;53.31;95115.47;1276909;23;20079;-65
2021/05/14 17:18:03;;;;;;;2.92;1.00;;;;;;;15.95;53.81;95110.25;1277456;23;20003;-66
2021/05/14 17:18:33;;;;;;;2.45;1.17;;;;;;;15.95;53.88;95105.66;1276776;23;20020;-66
2021/05/14 17:19:04;;;;;;;5.17;1.00;;;;;;;15.99;54.01;95112.00;1277886;23;19997;-66
2021/05/14 17:19:34;;;;;;;8.27;1.33;;;;;;;15.99;53.63;95112.00;1278517;23;20342;-66
2021/05/14 17:20:05;;;;;;;2.40;0.90;;;;;;;15.94;54.37;95114.88;1277948;23;20016;-67
2021/05/14 17:20:37;;;;;;;3.67;1.00;;;;;;;15.87;55.09;95111.91;1277925;23;20068;-67
2021/05/14 17:21:07;;;;;;;1.40;0.82;;;;;;;15.88;53.75;95110.78;1278060;23;19993;-66
2021/05/14 17:21:38;;;;;;;3.70;1.10;;;;;;;15.88;54.00;95105.41;1278038;23;20430;-67
2021/05/14 17:22:09;;;;;;;1.50;0.98;;;;;;;15.90;54.21;95107.75;1278570;23;20039;-67
2021/05/14 17:22:40;;;;;;;1.83;0.90;;;;;;;15.90;54.46;95105.84;1278485;23;20345;-65
2021/05/14 17:23:10;;;;;;;1.33;0.70;;;;;;;15.85;53.82;95111.41;1278594;23;20402;-67
2021/05/14 17:23:40;;;;;;;2.40;0.97;;;;;;;15.83;53.52;95108.28;1277996;23;19993;-66
2021/05/14 17:24:11;;;;;;;3.43;0.80;;;;;;;15.80;53.85;95101.63;1271972;23;19998;-67
2021/05/14 17:24:43;;;;;;;4.07;0.97;;;;;;;15.86;54.25;95110.31;1271828;23;19994;-67
2021/05/14 17:25:13;;;;;;;2.08;1.00;;;;;;;15.85;54.74;95114.13;1272124;23;20127;-67
2021/05/14 17:25:43;;;;;;;1.60;0.70;;;;;;;15.85;54.51;95111.41;1277530;23;20410;-67
2021/05/14 17:26:15;;;;;;;2.57;0.80;;;;;;;15.82;54.88;95114.78;1278013;23;19997;-67
2021/05/14 17:26:45;;;;;;;2.28;0.80;;;;;;;15.70;55.07;95107.34;1278134;23;20021;-67
2021/05/14 17:27:16;;;;;;;1.93;0.80;;;;;;;15.65;55.06;95114.84;1277801;23;20003;-67
2021/05/14 17:27:46;;;;;;;1.43;0.70;;;;;;;15.56;54.77;95115.66;1278053;23;19997;-67
2021/05/14 17:28:17;;;;;;;1.53;0.70;;;;;;;15.51;54.60;95115.81;1278581;23;20052;-67
2021/05/14 17:28:47;;;;;;;4.23;0.90;;;;;;;15.51;54.80;95115.81;1278064;23;20031;-67
2021/05/14 17:29:21;;;;;;;1.37;0.70;;;;;;;15.50;54.94;95111.53;1278458;23;20320;-67
2021/05/14 17:29:51;;;;;;;2.03;0.73;;;;;;;15.48;54.84;95110.28;1278126;23;20092;-68
2021/05/14 17:30:22;;;;;;;3.43;0.80;;;;;;;15.45;55.35;95116.28;1278511;23;20028;-68
2021/05/14 17:30:57;;;;;;;2.13;0.87;;;;;;;15.45;55.22;95119.00;1278471;23;20052;-68
2021/05/14 17:31:27;;;;;;;3.22;0.88;;;;;;;15.40;55.33;95117.25;1278366;23;20012;-66
2021/05/14 17:31:58;;;;;;;1.47;0.70;;;;;;;15.36;56.03;95116.34;1278535;23;20009;-67
2021/05/14 17:32:28;;;;;;;1.37;0.80;;;;;;;15.32;56.60;95115.41;1278558;23;20365;-66
2021/05/14 17:32:58;;;;;;;2.17;0.90;;;;;;;15.33;55.82;95112.38;1278536;23;20418;-66
2021/05/14 17:33:29;;;;;;;3.70;0.93;;;;;;;15.34;56.75;95113.94;1278373;23;20001;-66
2021/05/14 17:33:59;;;;;;;2.13;0.90;;;;;;;15.33;57.44;95117.75;1278450;23;20008;-67
2021/05/14 17:34:30;;;;;;;1.77;0.90;;;;;;;15.30;56.51;95120.28;1278288;23;20053;-67
2021/05/14 17:35:00;;;;;;;2.37;0.90;;;;;;;15.29;56.39;95121.41;1278021;23;20009;-66
2021/05/14 17:35:31;;;;;;;3.87;1.00;;;;;;;15.29;56.41;95124.09;1278133;23;20020;-67
2021/05/14 17:36:01;;;;;;;2.73;1.43;;;;;;;15.26;56.22;95125.53;1278480;23;19993;-68
2021/05/14 17:36:32;;;;;;;7.93;1.40;;;;;;;15.26;56.82;95120.16;1278422;23;19997;-66
2021/05/14 17:37:02;;;;;;;2.53;1.10;;;;;;;15.28;57.03;95123.31;1278523;23;20001;-66
2021/05/14 17:37:33;;;;;;;2.13;1.00;;;;;;;15.27;56.41;95124.44;1271745;23;19993;-67
2021/05/14 17:38:05;;;;;;;1.93;1.00;;;;;;;15.27;56.72;95126.34;1272008;23;20075;-68
2021/05/14 17:38:36;;;;;;;3.63;1.00;;;;;;;15.25;56.75;95125.84;1271873;23;19995;-67
2021/05/14 17:39:07;;;;;;;2.80;1.00;;;;;;;15.25;56.97;95123.97;1272379;23;19997;-69
2021/05/14 17:39:37;;;;;;;4.10;1.08;;;;;;;15.23;57.06;95130.78;1278192;23;20080;-67
2021/05/14 17:40:08;;;;;;;2.50;0.80;;;;;;;15.21;56.35;95122.25;1278304;23;20003;-70
2021/05/14 17:40:38;;;;;;;3.65;0.75;;;;;;;15.19;55.39;95124.44;1278422;23;20036;-70
2021/05/14 17:41:09;;;;;;;1.87;0.80;;;;;;;15.16;55.24;95127.78;1278078;23;20020;-76
2021/05/14 17:41:39;;;;;;;3.97;0.90;;;;;;;15.15;55.78;95120.81;1265683;23;19994;-68
2021/05/14 17:42:10;;;;;;;3.93;0.80;;;;;;;15.16;55.71;95133.16;1265879;23;20033;-69
2021/05/14 17:42:40;;;;;;;2.47;0.90;;;;;;;15.16;56.50;95127.78;1266066;23;19998;-67
2021/05/14 17:43:13;;;;;;;3.63;0.80;;;;;;;15.16;56.17;95133.97;1272073;23;19993;-69
2021/05/14 17:43:43;;;;;;;4.18;1.00;;;;;;;15.18;56.58;95131.72;1278067;23;20001;-69
2021/05/14 17:44:13;;;;;;;3.10;0.80;;;;;;;15.16;57.03;95127.78;1271808;23;20332;-66
2021/05/14 17:44:44;;;;;;;3.17;1.10;;;;;;;15.18;57.01;95126.34;1271344;23;20005;-67
2021/05/14 17:45:15;;;;;;;3.57;1.10;;;;;;;15.21;57.10;95133.78;1272003;23;20411;-68
2021/05/14 17:45:45;;;;;;;2.43;1.03;;;;;;;15.22;56.63;95134.56;1271830;23;20426;-71
2021/05/14 17:46:18;;;;;;;3.90;0.80;;;;;;;15.23;57.41;95128.06;1278029;23;20430;-70
2021/05/14 17:46:49;;;;;;;2.45;1.00;;;;;;;15.19;57.41;95132.50;1278040;23;20001;-69
2021/05/14 17:47:20;;;;;;;4.63;1.00;;;;;;;15.17;57.26;95129.38;1271753;23;20005;-72
2021/05/14 17:47:50;;;;;;;1.90;0.90;;;;;;;15.14;56.50;95128.09;1271683;23;19994;-67
2021/05/14 17:48:21;;;;;;;3.07;1.10;;;;;;;15.14;56.93;95135.38;1265828;23;20009;-72
2021/05/14 17:48:51;;;;;;;2.67;0.90;;;;;;;15.15;57.06;95134.25;1265855;23;19997;-71
2021/05/14 17:49:22;;;;;;;5.90;1.13;;;;;;;15.16;56.58;95135.84;1271982;23;20001;-67
2021/05/14 17:49:52;;;;;;;3.23;0.90;;;;;;;15.14;57.50;95130.78;1259463;23;20327;-69
2021/05/14 17:50:23;;;;;;;3.60;1.20;;;;;;;15.15;57.43;95131.56;1259840;23;20002;-73
2021/05/14 17:50:53;;;;;;;2.97;0.87;;;;;;;15.16;57.72;95139.34;1253566;23;19995;-64
2021/05/14 17:51:24;;;;;;;2.53;1.00;;;;;;;15.12;57.65;95133.00;1259538;23;20442;-68
2021/05/14 17:51:54;;;;;;;2.93;0.90;;;;;;;15.12;57.32;95137.59;1271910;23;20351;-69
2021/05/14 17:52:25;;;;;;;2.77;1.07;;;;;;;15.05;57.46;95133.50;1271918;23;20077;-75
2021/05/14 17:52:55;;;;;;;2.23;0.80;;;;;;;15.06;57.23;95143.16;1277919;23;20079;-76
2021/05/14 17:53:26;;;;;;;1.23;0.70;;;;;;;15.09;57.01;95141.72;1277899;23;20350;-75
2021/05/14 17:53:56;;;;;;;1.87;0.80;;;;;;;15.09;56.97;95139.81;1272025;23;20295;-76
2021/05/14 17:54:26;;;;;;;1.77;0.80;;;;;;;15.06;57.56;95145.84;1271710;23;20001;-74
2021/05/14 17:54:58;;;;;;;2.30;0.80;;;;;;;15.08;57.16;95140.91;1272084;23;19997;-74
2021/05/14 17:55:29;;;;;;;3.38;0.85;;;;;;;15.09;57.22;95145.19;1271943;23;20012;-72
2021/05/14 17:56:00;;;;;;;5.68;1.15;;;;;;;15.09;57.80;95144.41;1278075;23;20087;-73
2021/05/14 17:56:31;;;;;;;4.07;1.08;;;;;;;15.13;58.37;95141.88;1278187;23;20426;-73
2021/05/14 17:57:02;;;;;;;2.53;1.13;;;;;;;15.13;58.74;95144.56;1277785;23;20064;-74
2021/05/14 17:57:33;;;;;;;3.43;0.90;;;;;;;15.07;58.96;95142.03;1277837;23;19997;-73
2021/05/14 17:58:05;;;;;;;3.42;1.20;;;;;;;15.07;58.69;95142.03;1277810;23;20231;-74
2021/05/14 17:58:36;;;;;;;2.55;1.02;;;;;;;15.07;58.48;95147.41;1278251;23;20016;-73
2021/05/14 17:59:07;;;;;;;2.83;1.00;;;;;;;15.06;58.25;95150.44;1278275;23;20020;-74
2021/05/14 17:59:37;;;;;;;4.47;1.00;;;;;;;15.02;59.11;95146.78;1278369;23;19997;-74
2021/05/14 18:00:08;;;;;;;3.43;1.10;;;;;;;15.03;58.97;95149.16;1265446;23;20049;-73
2021/05/14 18:00:38;;;;;;;5.20;1.17;;;;;;;15.07;58.93;95152.78;1265511;23;20033;-73
2021/05/14 18:01:09;;;;;;;5.23;1.00;;;;;;;15.03;59.20;95143.00;1265874;23;19994;-73
2021/05/14 18:01:39;;;;;;;2.87;1.10;;;;;;;15.02;57.97;95150.28;1266108;23;20050;-73
2021/05/14 18:02:10;;;;;;;3.07;0.90;;;;;;;15.01;57.75;95153.28;1271973;23;20017;-74
2021/05/14 18:02:40;;;;;;;6.33;1.20;;;;;;;15.00;57.95;95146.34;1271871;23;20013;-73
2021/05/14 18:03:10;;;;;;;5.63;1.00;;;;;;;14.99;57.50;95150.91;1265798;23;20041;-74
2021/05/14 18:03:41;;;;;;;3.10;1.30;;;;;;;14.98;58.38;95146.63;1259667;23;20066;-74
2021/05/14 18:04:11;;;;;;;5.57;1.40;;;;;;;14.98;58.31;95143.94;1265512;23;20049;-74
2021/05/14 18:04:42;;;;;;;3.97;1.40;;;;;;;14.99;57.57;95150.91;1265829;23;20058;-74
2021/05/14 18:05:13;;;;;;;2.60;0.80;;;;;;;14.96;57.75;95145.38;1265793;23;20013;-74
2021/05/14 18:05:43;;;;;;;3.23;0.90;;;;;;;14.95;57.22;95149.97;1265941;23;20013;-73
2021/05/14 18:06:15;;;;;;;4.53;1.10;;;;;;;14.93;57.09;95149.47;1265850;23;20005;-73
2021/05/14 18:06:45;;;;;;;2.50;0.93;;;;;;;14.93;57.40;95151.38;1266172;23;20138;-74
2021/05/14 18:07:16;;;;;;;2.63;0.90;;;;;;;14.92;57.52;95147.91;1266137;23;20052;-74
2021/05/14 18:07:46;;;;;;;6.23;1.23;;;;;;;14.95;57.42;95149.19;1266089;23;20010;-74
2021/05/14 18:08:17;;;;;;;3.03;1.20;;;;;;;14.90;57.21;95152.81;1271769;23;20000;-74
2021/05/14 18:08:49;;;;;;;8.60;1.27;;;;;;;14.87;57.18;95158.03;1271834;23;19997;-74
2021/05/14 18:09:19;;;;;;;5.47;1.20;;;;;;;14.89;57.35;95151.22;1278598;23;20001;-73
2021/05/14 18:09:50;;;;;;;3.33;0.80;;;;;;;14.86;57.62;95151.88;1283862;23;20011;-75
2021/05/14 18:10:21;;;;;;;3.30;0.90;;;;;;;14.86;57.97;95159.16;1277954;23;20004;-75
2021/05/14 18:10:51;;;;;;;3.90;1.00;;;;;;;14.85;58.34;95155.66;1277885;23;19993;-74
2021/05/14 18:11:22;;;;;;;2.87;1.00;;;;;;;14.86;57.76;95151.88;1278085;23;20362;-74
2021/05/14 18:11:55;;;;;;;2.20;1.10;;;;;;;14.86;58.25;95151.09;1278296;23;20000;-75
2021/05/14 18:12:26;;;;;;;2.15;0.90;;;;;;;14.85;58.14;95155.66;1278107;23;19997;-73
2021/05/14 18:12:56;;;;;;;2.77;0.90;;;;;;;14.87;57.84;95153.44;1277809;23;20001;-74
2021/05/14 18:13:27;;;;;;;5.37;1.40;;;;;;;14.84;57.86;95159.44;1277917;23;20008;-73
2021/05/14 18:13:57;;;;;;;4.47;1.30;;;;;;;14.82;58.58;95161.69;1278040;23;20008;-73
2021/05/14 18:14:27;;;;;;;2.10;0.80;;;;;;;14.79;58.27;95156.91;1278517;23;20005;-73
2021/05/14 18:14:58;;;;;;;4.90;0.90;;;;;;;14.79;57.87;95163.13;1277935;23;20000;-73
2021/05/14 18:15:28;;;;;;;2.30;0.70;;;;;;;14.78;57.65;95155.34;1271908;23;20434;-73
2021/05/14 18:15:59;;;;;;;4.90;1.10;;;;;;;14.76;58.13;95157.56;1271773;23;19994;-73
2021/05/14 18:16:29;;;;;;;3.97;1.13;;;;;;;14.75;57.99;95156.78;1271939;23;20025;-74
2021/05/14 18:17:00;;;;;;;5.80;0.90;;;;;;;14.73;58.13;95150.91;1277950;23;20008;-73
2021/05/14 18:17:30;;;;;;;2.07;0.87;;;;;;;14.70;57.87;95164.22;1278120;23;20055;-73
2021/05/14 18:18:02;;;;;;;2.67;1.03;;;;;;;14.73;58.38;95164.34;1278103;23;19997;-73
2021/05/14 18:18:51;;;;;;;3.17;0.90;;;;;;;14.71;58.78;95155.03;1277676;23;19993;-74
2021/05/14 18:19:52;;;;;;;2.13;0.93;;;;;;;14.69;57.92;95159.91;1275910;23;20001;-73
2021/05/14 18:20:22;;;;;;;4.73;1.10;;;;;;;14.67;58.22;95156.75;1278117;23;20076;-75
2021/05/14 18:20:53;;;;;;;5.20;1.20;;;;;;;14.67;58.32;95156.75;1271917;23;20213;-73
2021/05/14 18:21:23;;;;;;;8.00;1.10;;;;;;;14.66;58.03;95161.34;1271850;23;20001;-73
2021/05/14 18:21:54;;;;;;;3.03;1.10;;;;;;;14.66;58.08;95166.72;1265854;23;20028;-73
2021/05/14 18:22:25;;;;;;;6.93;1.10;;;;;;;14.64;58.31;95160.88;1271824;23;20013;-73
2021/05/14 18:22:56;;;;;;;3.47;1.17;;;;;;;14.64;58.35;95166.28;1271967;23;20001;-73
2021/05/14 18:23:26;;;;;;;6.20;1.00;;;;;;;14.65;58.55;95161.69;1266153;23;20009;-73
2021/05/14 18:23:58;;;;;;;2.97;1.00;;;;;;;14.64;58.30;95170.81;1277990;23;20052;-73
2021/05/14 18:24:28;;;;;;;5.13;1.05;;;;;;;14.62;58.54;95165.78;1278078;23;20020;-73
2021/05/14 18:24:59;;;;;;;3.93;1.00;;;;;;;14.64;58.77;95168.13;1272375;23;20024;-73
2021/05/14 18:25:29;;;;;;;6.23;1.50;;;;;;;14.62;58.27;95168.47;1277975;23;20001;-74
2021/05/14 18:26:00;;;;;;;3.30;1.03;;;;;;;14.62;57.88;95167.69;1271771;23;20300;-73
2021/05/14 18:26:30;;;;;;;7.80;1.33;;;;;;;14.62;58.20;95171.16;1265771;23;20327;-73
2021/05/14 18:27:01;;;;;;;3.37;1.30;;;;;;;14.60;57.97;95164.53;1265623;23;20002;-73
2021/05/14 18:27:34;;;;;;;4.03;1.30;;;;;;;14.59;57.75;95169.09;1253900;23;20055;-73
2021/05/14 18:28:04;;;;;;;2.13;1.00;;;;;;;14.58;58.23;95167.50;1266458;23;20076;-74
2021/05/14 18:28:35;;;;;;;3.13;1.00;;;;;;;14.60;57.35;95168.00;1271807;23;20001;-66
2021/05/14 18:29:06;;;;;;;3.27;0.97;;;;;;;14.61;57.51;95168.78;1272618;23;20438;-68
2021/05/14 18:29:36;;;;;;;3.33;0.87;;;;;;;14.63;58.32;95163.88;1271760;23;19997;-68
2021/05/14 18:30:12;;;;;;;2.53;0.90;;;;;;;14.61;57.46;95168.78;1271780;23;20056;-65
2021/05/14 18:30:44;;;;;;;3.30;1.20;;;;;;;14.59;57.83;95173.66;1272006;23;20085;-69
2021/05/14 18:31:14;;;;;;;1.48;0.80;;;;;;;14.62;57.25;95167.69;1268785;23;19998;-64
2021/05/14 18:31:44;;;;;;;6.07;1.20;;;;;;;14.59;57.89;95169.09;1265345;23;20014;-73
2021/05/14 18:32:16;;;;;;;2.60;0.90;;;;;;;14.60;57.27;95164.53;1265103;23;20088;-75
2021/05/14 18:32:46;;;;;;;2.42;0.90;;;;;;;14.59;57.03;95170.97;1266017;23;20006;-67
2021/05/14 18:33:17;;;;;;;3.70;1.03;;;;;;;14.57;57.80;95169.41;1272518;23;19994;-67
2021/05/14 18:33:49;;;;;;;4.10;1.03;;;;;;;14.58;57.06;95167.50;1283689;23;20340;-64
2021/05/14 18:34:19;;;;;;;2.60;1.10;;;;;;;14.57;57.19;95164.03;1277923;23;20041;-65
2021/05/14 18:34:52;;;;;;;2.93;0.97;;;;;;;14.60;57.15;95172.59;1277979;23;20009;-65
2021/05/14 18:35:22;;;;;;;2.63;0.98;;;;;;;14.58;57.55;95167.50;1277999;23;20061;-81
2021/05/14 18:35:53;;;;;;;3.80;1.40;;;;;;;14.56;57.71;95169.72;1259253;23;20393;-68
2021/05/14 18:36:24;;;;;;;5.03;1.43;;;;;;;14.55;57.65;95171.63;1253575;23;20002;-69
2021/05/14 18:36:54;;;;;;;8.83;1.37;;;;;;;14.57;58.07;95168.63;1253768;23;20017;-71
2021/05/14 18:37:24;;;;;;;4.03;1.10;;;;;;;14.58;58.00;95178.25;1254230;23;20031;-66
2021/05/14 18:37:55;;;;;;;4.23;1.17;;;;;;;14.59;57.83;95176.34;1277863;23;20461;-70
2021/05/14 18:38:26;;;;;;;3.30;1.00;;;;;;;14.56;57.98;95175.91;1278149;23;19996;-72
2021/05/14 18:38:56;;;;;;;2.25;0.90;;;;;;;14.56;57.86;95175.91;1278365;23;20001;-68
2021/05/14 18:39:27;;;;;;;1.97;0.83;;;;;;;14.56;58.31;95180.47;1278484;23;20009;-83
2021/05/14 18:39:57;;;;;;;2.60;1.07;;;;;;;14.55;57.53;95182.38;1277753;23;20001;-67
2021/05/14 18:40:28;;;;;;;1.67;0.73;;;;;;;14.54;57.09;95177.34;1277845;23;20068;-73
2021/05/14 18:40:59;;;;;;;3.07;1.10;;;;;;;14.54;57.29;95178.13;1277433;23;20422;-66
2021/05/14 18:41:29;;;;;;;2.30;1.10;;;;;;;14.57;57.50;95177.47;1277894;23;19997;-65
2021/05/14 18:42:00;;;;;;;2.17;0.90;;;;;;;14.57;57.03;95180.16;1278276;23;20001;-66
2021/05/14 18:42:31;;;;;;;5.53;1.20;;;;;;;14.56;56.95;95181.28;1278376;23;20072;-65
2021/05/14 18:43:01;;;;;;;4.17;0.90;;;;;;;14.55;57.11;95179.69;1278191;23;20001;-65
2021/05/14 18:43:32;;;;;;;2.60;1.10;;;;;;;14.54;56.58;95182.72;1278263;23;19997;-65
2021/05/14 18:44:04;;;;;;;4.00;1.20;;;;;;;14.54;57.49;95183.50;1278360;23;20005;-65
2021/05/14 18:44:34;;;;;;;2.97;0.70;;;;;;;14.53;57.83;95178.41;1277897;23;20111;-66
2021/05/14 18:45:05;;;;;;;2.93;1.27;;;;;;;14.52;57.39;95184.91;1278430;23;20004;-65
2021/05/14 18:45:36;;;;;;;2.60;0.98;;;;;;;14.52;57.91;95184.91;1277909;23;19997;-65
2021/05/14 18:46:07;;;;;;;5.27;1.20;;;;;;;14.51;57.76;95186.00;1278036;23;20005;-64
2021/05/14 18:46:37;;;;;;;3.47;1.30;;;;;;;14.50;57.76;95184.44;1277886;23;19997;-65
2021/05/14 18:47:08;;;;;;;3.43;1.20;;;;;;;14.49;57.67;95194.41;1278066;23;20248;-65
2021/05/14 18:47:39;;;;;;;2.70;1.10;;;;;;;14.51;57.76;95186.00;1277931;23;20489;-64
2021/05/14 18:48:09;;;;;;;2.43;1.10;;;;;;;14.50;58.36;95190.59;1277791;23;20052;-64
2021/05/14 18:48:40;;;;;;;4.20;1.37;;;;;;;14.46;59.51;95194.97;1277934;23;20001;-64
2021/05/14 18:49:10;;;;;;;3.67;1.23;;;;;;;14.45;59.71;95198.78;1277935;23;20008;-64
2021/05/14 18:49:40;;;;;;;2.63;1.10;;;;;;;14.46;59.48;95202.25;1277904;23;19993;-63
2021/05/14 18:50:11;;;;;;;4.83;1.30;;;;;;;14.44;58.87;95205.28;1277780;23;20001;-65
2021/05/14 18:50:42;;;;;;;7.17;1.33;;;;;;;14.46;59.32;95207.63;1278038;23;20001;-64
2021/05/14 18:51:12;;;;;;;6.37;1.70;;;;;;;14.46;60.95;95213.00;1277809;23;20020;-64
2021/05/14 18:51:43;;;;;;;9.83;1.80;;;;;;;14.41;61.49;95219.31;1278448;23;20020;-64
2021/05/14 18:52:13;;;;;;;4.93;1.20;;;;;;;14.25;62.49;95207.44;1278468;23;20008;-64
2021/05/14 18:52:44;;;;;;;5.33;1.50;;;;;;;14.23;62.74;95209.66;1278385;23;20013;-64
2021/05/14 18:53:14;;;;;;;5.37;1.50;;;;;;;14.19;62.97;95211.38;1278307;23;20323;-64
2021/05/14 18:53:45;;;;;;;3.77;1.10;;;;;;;14.13;63.47;95226.84;1278324;23;19993;-64
2021/05/14 18:54:16;;;;;;;6.07;1.53;;;;;;;14.12;63.89;95219.06;1278234;23;19989;-64
2021/05/14 18:54:46;;;;;;;3.00;1.10;;;;;;;13.98;64.35;95224.56;1277718;23;20004;-63
2021/05/14 18:55:16;;;;;;;5.87;1.20;;;;;;;13.89;64.34;95221.03;1278043;23;19989;-63
2021/05/14 18:55:47;;;;;;;4.70;1.03;;;;;;;13.81;65.07;95224.47;1277792;23;19997;-64
2021/05/14 18:56:17;;;;;;;5.13;1.17;;;;;;;13.74;65.50;95223.03;1271827;23;20063;-64
2021/05/14 18:56:48;;;;;;;5.03;1.03;;;;;;;13.72;65.51;95227.13;1271850;23;19997;-65
2021/05/14 18:57:18;;;;;;;2.63;0.97;;;;;;;13.65;65.94;95226.75;1277831;23;19993;-64
2021/05/14 18:57:49;;;;;;;3.17;0.73;;;;;;;13.59;65.10;95220.72;1271905;23;19993;-64
2021/05/14 18:58:19;;;;;;;3.40;1.00;;;;;;;13.50;65.84;95235.97;1277807;23;20009;-64
2021/05/14 18:58:49;;;;;;;1.73;0.70;;;;;;;13.45;65.42;95223.47;1277892;23;19993;-65
2021/05/14 18:59:20;;;;;;;3.70;1.00;;;;;;;13.41;65.64;95233.25;1278037;23;20426;-64
2021/05/14 18:59:51;;;;;;;4.37;1.07;;;;;;;13.37;65.49;95234.19;1277913;23;20350;-64
2021/05/14 19:00:24;;;;;;;3.87;0.77;;;;;;;13.30;65.60;95236.47;1278072;23;19990;-64
2021/05/14 19:00:55;;;;;;;3.45;0.82;;;;;;;13.22;66.09;95236.13;1277724;23;19989;-64
2021/05/14 19:01:25;;;;;;;2.72;0.90;;;;;;;13.14;65.71;95236.81;1272687;23;20000;-64
2021/05/14 19:01:56;;;;;;;5.60;1.00;;;;;;;13.10;66.04;95245.75;1277854;23;20000;-64
2021/05/14 19:02:28;;;;;;;1.30;0.70;;;;;;;13.04;66.29;95241.63;1277936;23;20096;-64
2021/05/14 19:02:59;;;;;;;3.70;0.80;;;;;;;12.97;66.47;95234.78;1277962;23;20363;-64
2021/05/14 19:03:30;;;;;;;3.90;0.93;;;;;;;12.94;66.29;95248.00;1278338;23;19989;-64
2021/05/14 19:04:00;;;;;;;4.07;0.80;;;;;;;12.89;66.74;95240.84;1278347;23;20414;-64
2021/05/14 19:04:30;;;;;;;5.50;1.13;;;;;;;12.87;67.50;95244.94;1278330;23;20219;-64
2021/05/14 19:05:04;;;;;;;4.00;0.80;;;;;;;12.85;67.04;95247.94;1278314;23;20394;-63
2021/05/14 19:05:35;;;;;;;2.28;0.80;;;;;;;12.83;67.27;95249.31;1278287;23;19993;-65
2021/05/14 19:06:05;;;;;;;1.87;0.80;;;;;;;12.83;67.18;95255.47;1278419;23;20001;-64
2021/05/14 19:06:36;;;;;;;1.83;0.70;;;;;;;12.82;68.25;95253.09;1278369;23;19995;-64
2021/05/14 19:07:07;;;;;;;3.80;0.70;;;;;;;12.79;68.29;95253.69;1277870;23;19993;-63
2021/05/14 19:07:41;;;;;;;2.27;0.60;;;;;;;12.79;67.79;95259.06;1278010;23;20365;-64
2021/05/14 19:08:13;;;;;;;3.80;0.80;;;;;;;12.76;67.76;95265.84;1278029;23;19989;-65
2021/05/14 19:08:44;;;;;;;3.47;0.90;;;;;;;12.77;68.65;95262.06;1278017;23;20001;-64
2021/05/14 19:09:16;;;;;;;2.37;0.90;;;;;;;12.77;68.27;95264.72;1277968;23;20006;-63
2021/05/14 19:09:46;;;;;;;2.80;1.05;;;;;;;12.75;68.20;95267.72;1277938;23;20049;-64
2021/05/14 19:10:17;;;;;;;3.43;1.17;;;;;;;12.71;68.48;95268.63;1277773;23;20465;-64
2021/05/14 19:10:48;;;;;;;5.15;1.20;;;;;;;12.66;69.12;95266.84;1278130;23;20315;-63
2021/05/14 19:11:18;;;;;;;3.43;1.20;;;;;;;12.66;68.67;95271.41;1277903;23;20051;-64
2021/05/14 19:11:49;;;;;;;3.23;1.03;;;;;;;12.67;68.85;95267.63;1278483;23;20005;-63
2021/05/14 19:12:19;;;;;;;2.43;1.10;;;;;;;12.71;69.08;95274.00;1278497;23;20430;-63
2021/05/14 19:12:50;;;;;;;3.20;0.90;;;;;;;12.72;69.31;95278.25;1278431;23;20005;-63
2021/05/14 19:13:20;;;;;;;2.83;0.90;;;;;;;12.68;69.40;95270.00;1278047;23;20009;-64
2021/05/14 19:13:51;;;;;;;2.00;0.90;;;;;;;12.63;68.56;95282.72;1277920;23;20005;-64
2021/05/14 19:14:22;;;;;;;3.20;0.73;;;;;;;12.57;69.16;95274.00;1277814;23;20068;-64
2021/05/14 19:14:52;;;;;;;2.03;0.90;;;;;;;12.56;68.85;95276.97;1271869;23;20008;-64
2021/05/14 19:15:23;;;;;;;3.53;1.00;;;;;;;12.55;69.22;95284.22;1277875;23;20008;-64
2021/05/14 19:15:53;;;;;;;8.33;0.90;;;;;;;12.51;69.33;95275.19;1271884;23;20323;-64
2021/05/14 19:16:23;;;;;;;2.33;0.90;;;;;;;12.48;70.01;95289.19;1272081;23;20418;-64
2021/05/14 19:16:54;;;;;;;1.37;0.83;;;;;;;12.49;70.15;95283.53;1277960;23;20001;-64
2021/05/14 19:17:24;;;;;;;3.27;0.70;;;;;;;12.49;69.97;95282.75;1277923;23;20453;-64